Grapevine, Arkansas
Current Conditions -  °F | °C
As of 2:25 AM on Sunday 26 Oct 2014 (Local Time) from KPBF Reporting Station
Haze Haze  
Wind Chill: 62°   Ceiling: Unl
Heat Index: 62°   Visibility: 6mi
Dew Point: 61°   Wind: 3mph
Humidity: 96%   Direction: 220°SW
Pressure: 30.02"   Gusts: NA
Location:  34.15°N, 92.32°W
Report Text: KPBF 260725Z AUTO 22003KT 6SM BR SCT005 17/16 A3002 RMK AO2 T01670161
Loading
Personal Weather Stations






























Interactive Weather Map
Tropical Storm Tracking
New forecast layout! Learn more

10-Day Weather Forecast

Advertisements
Track Severe Weather on mobile